Tasman Castle — 9HA3163 — position and weather

sailwx.info

Track history (hours):
 
Tides and Currents Weather Stations Pressure Air Temp Water Temp Dewpoint Dewpoint Depression Visibility Wind Speed Wind Dir Waves Ship Positions

Tasman Castle

Last reported at 2017-Oct-04 03:21 UTC. Time now 2017-Dec-14 08:23 UTC.
Position N 16°39' W 061°55'.
Warning: this ship's position is months out of date.

Length 190 m; draft 12 m.

Type: Cargo ship. MMSI: 229237000.

Date/timePositionNaut miles runAvg speedWind from/ knotsBaromVisibWave heightAir tempDewpointWater temp
2017-Oct-04 03:21N 16°39' W 061°55'411.6
2017-Oct-04 03:01N 16°41' W 061°51'611.7
2017-Oct-04 02:31N 16°43' W 061°45'612.0
2017-Oct-04 02:00N 16°45' W 061°40'812.0
2017-Oct-04 01:21N 16°48' W 061°32'3611.9
2017-Oct-03 22:21N 17°02' W 060°58'  
2017-Sep-25 01:32N 32°56' W 018°18'011.2
2017-Sep-25 01:31N 32°56' W 018°18'611.5
2017-Sep-25 00:59N 32°58' W 018°11'611.5
2017-Sep-25 00:30N 32°59' W 018°04'2911.0
2017-Sep-24 21:55N 33°06' W 017°31'411.0
2017-Sep-24 21:30N 33°07' W 017°26'2811.0
2017-Sep-24 18:59N 33°16' W 016°55'811.0
2017-Sep-24 18:17N 33°18' W 016°46'411.0
2017-Sep-24 17:56N 33°19' W 016°41'511.1
2017-Sep-24 17:30N 33°20' W 016°36'611.0
2017-Sep-24 17:00N 33°22' W 016°29'710.8
2017-Sep-24 16:18N 33°24' W 016°21'410.7
2017-Sep-24 15:56N 33°25' W 016°16'510.7
2017-Sep-24 15:31N 33°26' W 016°11'511.0
2017-Sep-24 15:01N 33°28' W 016°05'611.0
2017-Sep-24 14:30N 33°30' W 015°58'511.0
2017-Sep-24 14:01N 33°31' W 015°52'610.7
2017-Sep-24 13:29N 33°33' W 015°46'510.7
2017-Sep-24 13:01N 33°34' W 015°40'510.5
2017-Sep-24 12:30N 33°36' W 015°34'510.5
2017-Sep-24 11:58N 33°37' W 015°27'510.6
2017-Sep-24 11:30N 33°39' W 015°22'510.6
2017-Sep-24 11:00N 33°41' W 015°16'611.2
2017-Sep-24 10:30N 33°43' W 015°09'711.3
2017-Sep-24 09:54N 33°45' W 015°02'511.3
2017-Sep-24 09:29N 33°46' W 014°56'511.4
2017-Sep-24 09:00N 33°48' W 014°50'611.8
2017-Sep-24 08:30N 33°49' W 014°43'611.9
2017-Sep-24 08:00N 33°51' W 014°36'612.0
2017-Sep-24 07:30N 33°53' W 014°29'612.1
2017-Sep-24 07:00N 33°54' W 014°22'612.0
2017-Sep-24 06:31N 33°56' W 014°15'612.2
2017-Sep-24 06:00N 33°58' W 014°08'711.8
2017-Sep-24 05:25N 33°60' W 014°00'611.8
2017-Sep-24 04:52N 34°02' W 013°53'711.8
2017-Sep-24 04:18N 34°04' W 013°45'311.7
2017-Sep-24 04:00N 34°05' W 013°41'611.9
2017-Sep-24 03:30N 34°07' W 013°34'  
Track history (hours):
 
Tides and Currents Weather Stations Pressure Air Temp Water Temp Dewpoint Dewpoint Depression Visibility Wind Speed Wind Dir Waves Ship Positions

Tasman Castle

Last reported at 2017-Oct-04 03:21 UTC. Time now 2017-Dec-14 08:23 UTC.
Position N 16°39' W 061°55'.
Warning: this ship's position is months out of date.

Length 190 m; draft 12 m.

Type: Cargo ship. MMSI: 229237000.

Date/timePositionNaut miles runAvg speedWind from/ knotsBaromVisibWave heightAir tempDewpointWater temp
2017-Oct-04 03:21N 16°39' W 061°55'411.6
2017-Oct-04 03:01N 16°41' W 061°51'611.7
2017-Oct-04 02:31N 16°43' W 061°45'612.0
2017-Oct-04 02:00N 16°45' W 061°40'812.0
2017-Oct-04 01:21N 16°48' W 061°32'3611.9
2017-Oct-03 22:21N 17°02' W 060°58'  
2017-Sep-25 01:32N 32°56' W 018°18'011.2
2017-Sep-25 01:31N 32°56' W 018°18'611.5
2017-Sep-25 00:59N 32°58' W 018°11'611.5
2017-Sep-25 00:30N 32°59' W 018°04'2911.0
2017-Sep-24 21:55N 33°06' W 017°31'411.0
2017-Sep-24 21:30N 33°07' W 017°26'2811.0
2017-Sep-24 18:59N 33°16' W 016°55'811.0
2017-Sep-24 18:17N 33°18' W 016°46'411.0
2017-Sep-24 17:56N 33°19' W 016°41'511.1
2017-Sep-24 17:30N 33°20' W 016°36'611.0
2017-Sep-24 17:00N 33°22' W 016°29'710.8
2017-Sep-24 16:18N 33°24' W 016°21'410.7
2017-Sep-24 15:56N 33°25' W 016°16'510.7
2017-Sep-24 15:31N 33°26' W 016°11'511.0
2017-Sep-24 15:01N 33°28' W 016°05'611.0
2017-Sep-24 14:30N 33°30' W 015°58'511.0
2017-Sep-24 14:01N 33°31' W 015°52'610.7
2017-Sep-24 13:29N 33°33' W 015°46'510.7
2017-Sep-24 13:01N 33°34' W 015°40'510.5
2017-Sep-24 12:30N 33°36' W 015°34'510.5
2017-Sep-24 11:58N 33°37' W 015°27'510.6
2017-Sep-24 11:30N 33°39' W 015°22'510.6
2017-Sep-24 11:00N 33°41' W 015°16'611.2
2017-Sep-24 10:30N 33°43' W 015°09'711.3
2017-Sep-24 09:54N 33°45' W 015°02'511.3
2017-Sep-24 09:29N 33°46' W 014°56'511.4
2017-Sep-24 09:00N 33°48' W 014°50'611.8
2017-Sep-24 08:30N 33°49' W 014°43'611.9
2017-Sep-24 08:00N 33°51' W 014°36'612.0
2017-Sep-24 07:30N 33°53' W 014°29'612.1
2017-Sep-24 07:00N 33°54' W 014°22'612.0
2017-Sep-24 06:31N 33°56' W 014°15'612.2
2017-Sep-24 06:00N 33°58' W 014°08'711.8
2017-Sep-24 05:25N 33°60' W 014°00'611.8
2017-Sep-24 04:52N 34°02' W 013°53'711.8
2017-Sep-24 04:18N 34°04' W 013°45'311.7
2017-Sep-24 04:00N 34°05' W 013°41'611.9
2017-Sep-24 03:30N 34°07' W 013°34'  

Dump ship's entire track history